createdAt,value
2023-03-13T00:00:18.239Z,18.77
2023-03-13T00:04:18.267Z,18.78
2023-03-13T00:08:18.293Z,18.77
2023-03-13T00:12:18.368Z,18.78
2023-03-13T00:16:18.441Z,18.78
2023-03-13T00:20:18.428Z,18.77
2023-03-13T00:24:18.474Z,18.78
2023-03-13T00:28:18.562Z,18.76
2023-03-13T00:32:18.595Z,18.77
2023-03-13T00:36:18.634Z,18.78
2023-03-13T00:40:18.669Z,18.77
2023-03-13T00:44:18.686Z,18.76
2023-03-13T00:48:18.790Z,18.76
2023-03-13T00:52:18.874Z,18.75
2023-03-13T00:56:18.869Z,18.75
2023-03-13T01:00:18.895Z,18.76
2023-03-13T01:04:18.970Z,18.74
2023-03-13T01:08:18.950Z,18.74
2023-03-13T01:12:18.988Z,18.74
2023-03-13T01:16:19.040Z,18.75
2023-03-13T01:20:18.980Z,18.74
2023-03-13T01:24:19.041Z,18.74
2023-03-13T01:28:19.232Z,18.74
2023-03-13T01:32:19.261Z,18.74
2023-03-13T01:36:19.339Z,18.74
2023-03-13T01:40:19.517Z,18.73
2023-03-13T01:44:19.603Z,18.74
2023-03-13T01:48:19.718Z,18.74
2023-03-13T01:52:19.842Z,18.74
2023-03-13T01:56:19.847Z,18.74
2023-03-13T02:00:19.833Z,18.74
2023-03-13T02:04:19.839Z,18.74
2023-03-13T02:08:19.907Z,18.75
2023-03-13T02:12:19.950Z,18.74
2023-03-13T02:16:20.074Z,18.75
2023-03-13T02:20:20.006Z,18.74
2023-03-13T02:24:20.051Z,18.74
2023-03-13T02:28:20.059Z,18.72
2023-03-13T02:32:20.066Z,18.72
2023-03-13T02:36:20.041Z,18.73
2023-03-13T02:40:20.062Z,18.73
2023-03-13T02:44:20.086Z,18.74
2023-03-13T02:48:20.140Z,18.73
2023-03-13T02:52:20.155Z,18.74
2023-03-13T02:56:20.114Z,18.74
2023-03-13T03:00:20.168Z,18.73
2023-03-13T03:04:20.154Z,18.71
2023-03-13T03:08:20.165Z,18.71
2023-03-13T03:12:20.210Z,18.71
2023-03-13T03:16:20.292Z,18.71
2023-03-13T03:20:20.292Z,18.72
2023-03-13T03:24:20.335Z,18.71
2023-03-13T03:28:20.362Z,18.71
2023-03-13T03:32:20.472Z,18.71
2023-03-13T03:36:20.498Z,18.72
2023-03-13T03:40:20.584Z,18.72
2023-03-13T03:44:20.571Z,18.71
2023-03-13T03:48:20.659Z,18.72
2023-03-13T03:52:20.692Z,18.72
2023-03-13T03:56:20.748Z,18.71
2023-03-13T04:00:20.776Z,18.72
2023-03-13T04:04:20.825Z,18.72
2023-03-13T04:08:20.820Z,18.72
2023-03-13T04:12:20.878Z,18.73
2023-03-13T04:16:21.002Z,18.75
2023-03-13T04:20:20.985Z,18.78
2023-03-13T04:24:21.114Z,18.81
2023-03-13T04:28:21.259Z,18.84
2023-03-13T04:32:21.529Z,18.87
2023-03-13T04:36:21.724Z,18.89
2023-03-13T04:40:21.865Z,18.90
2023-03-13T04:44:21.900Z,18.91
2023-03-13T04:48:21.807Z,18.92
2023-03-13T04:52:21.751Z,18.94
2023-03-13T04:56:32.483Z,18.93
2023-03-13T05:00:22.672Z,18.94
2023-03-13T05:04:21.757Z,18.94
2023-03-13T05:08:21.710Z,18.94
2023-03-13T05:12:21.687Z,18.94
2023-03-13T05:16:21.756Z,18.95
2023-03-13T05:20:21.589Z,18.95
2023-03-13T05:24:21.558Z,18.96
2023-03-13T05:28:21.556Z,18.96
2023-03-13T05:32:21.613Z,18.96
2023-03-13T05:36:21.469Z,18.98
2023-03-13T05:40:21.445Z,18.97
2023-03-13T05:44:21.616Z,18.96
2023-03-13T05:48:21.579Z,18.96
2023-03-13T05:52:21.562Z,18.95
2023-03-13T05:56:21.518Z,18.96
2023-03-13T06:00:21.489Z,18.97
2023-03-13T06:04:21.622Z,18.97
2023-03-13T06:08:21.875Z,18.96
2023-03-13T06:12:21.367Z,18.96
2023-03-13T06:16:21.407Z,18.97
2023-03-13T06:20:21.317Z,18.97
2023-03-13T06:24:21.264Z,18.98
2023-03-13T06:28:21.231Z,18.97
2023-03-13T06:32:21.320Z,18.99
2023-03-13T06:36:21.209Z,18.99
2023-03-13T06:40:21.300Z,18.99
2023-03-13T06:44:21.083Z,18.97
2023-03-13T06:48:21.294Z,18.99
2023-03-13T06:52:26.449Z,18.99
2023-03-13T06:56:22.280Z,18.99
2023-03-13T07:00:20.975Z,19.00
2023-03-13T07:04:20.975Z,19.00
2023-03-13T07:08:21.283Z,19.00
2023-03-13T07:12:21.308Z,19.02
2023-03-13T07:16:20.831Z,19.00
2023-03-13T07:20:20.863Z,19.01
2023-03-13T07:24:20.872Z,19.01
2023-03-13T07:28:20.723Z,18.82
2023-03-13T07:32:20.820Z,18.03
2023-03-13T07:36:20.689Z,17.61
2023-03-13T07:40:20.667Z,17.12
2023-03-13T07:44:20.924Z,16.91
2023-03-13T07:48:21.315Z,16.57
2023-03-13T07:52:21.322Z,16.59
2023-03-13T07:56:21.177Z,17.03
2023-03-13T08:00:21.831Z,17.30
2023-03-13T08:04:21.432Z,17.50
2023-03-13T08:08:21.821Z,17.62
2023-03-13T08:12:21.577Z,17.66
2023-03-13T08:16:21.857Z,17.79
2023-03-13T08:20:21.794Z,17.99
2023-03-13T08:24:21.650Z,18.00
2023-03-13T08:28:21.651Z,18.03
2023-03-13T08:32:21.855Z,17.93
2023-03-13T08:36:21.558Z,17.85
2023-03-13T08:40:21.838Z,17.86
2023-03-13T08:44:21.830Z,17.77
2023-03-13T08:48:21.449Z,18.24
2023-03-13T08:52:21.405Z,18.76
2023-03-13T08:56:21.860Z,19.11
2023-03-13T09:00:21.355Z,19.37
2023-03-13T09:04:21.322Z,19.57
2023-03-13T09:08:21.305Z,19.75
2023-03-13T09:12:30.447Z,19.84
2023-03-13T09:16:22.375Z,19.89
2023-03-13T09:20:21.355Z,20.02
2023-03-13T09:24:21.118Z,20.07
2023-03-13T09:28:21.350Z,20.21
2023-03-13T09:32:21.217Z,20.24
2023-03-13T09:36:22.661Z,20.24
2023-03-13T09:40:21.009Z,20.10
2023-03-13T09:44:21.371Z,19.99
2023-03-13T09:48:21.345Z,19.89
2023-03-13T09:52:21.327Z,19.82
2023-03-13T09:56:20.862Z,19.83
2023-03-13T10:00:20.840Z,19.88
2023-03-13T10:04:21.394Z,19.90
2023-03-13T10:08:21.389Z,19.93
2023-03-13T10:12:20.940Z,19.98
2023-03-13T10:16:20.964Z,19.98
2023-03-13T10:20:20.864Z,20.01
2023-03-13T10:24:20.792Z,20.05
2023-03-13T10:28:20.851Z,20.05
2023-03-13T10:32:20.750Z,20.10
2023-03-13T10:36:20.866Z,20.19
2023-03-13T10:40:20.888Z,20.15
2023-03-13T10:44:20.878Z,20.07
2023-03-13T10:48:20.732Z,20.07
2023-03-13T10:52:20.871Z,20.10
2023-03-13T10:56:20.856Z,20.13
2023-03-13T11:00:20.615Z,20.17
2023-03-13T11:04:20.881Z,20.18
2023-03-13T11:08:20.581Z,20.20
2023-03-13T11:12:20.901Z,20.20
2023-03-13T11:16:20.650Z,20.25
2023-03-13T11:20:20.875Z,20.29
2023-03-13T11:24:20.502Z,20.29
2023-03-13T11:28:20.882Z,20.31
2023-03-13T11:32:20.907Z,20.32
2023-03-13T11:36:20.904Z,20.34
2023-03-13T11:40:21.536Z,20.42
2023-03-13T11:44:21.084Z,20.40
2023-03-13T11:48:21.216Z,20.38
2023-03-13T11:52:21.332Z,20.42
2023-03-13T11:56:21.389Z,20.44
2023-03-13T12:00:21.465Z,20.47
2023-03-13T12:04:21.541Z,20.51
2023-03-13T12:08:21.613Z,20.51
2023-03-13T12:12:21.681Z,20.52
2023-03-13T12:16:21.914Z,20.53
2023-03-13T12:20:21.771Z,20.52
2023-03-13T12:24:21.800Z,20.57
2023-03-13T12:28:23.876Z,20.52
2023-03-13T12:32:22.544Z,20.42
2023-03-13T12:36:22.470Z,20.34
2023-03-13T12:40:22.348Z,20.30
2023-03-13T12:44:22.581Z,20.28
2023-03-13T12:48:22.660Z,20.24
2023-03-13T12:52:22.634Z,20.21
2023-03-13T12:56:22.499Z,20.19
2023-03-13T13:00:22.482Z,20.17
2023-03-13T13:04:22.513Z,20.14
2023-03-13T13:08:22.381Z,20.13
2023-03-13T13:12:22.423Z,20.09
2023-03-13T13:16:22.400Z,20.05
2023-03-13T13:20:22.418Z,20.02
2023-03-13T13:24:22.416Z,20.01
2023-03-13T13:28:22.227Z,19.99
2023-03-13T13:32:22.416Z,19.96
2023-03-13T13:36:22.554Z,19.97
2023-03-13T13:40:22.678Z,19.95
2023-03-13T13:44:22.713Z,19.93
2023-03-13T13:48:22.730Z,19.90
2023-03-13T13:52:22.727Z,19.89
2023-03-13T13:56:22.734Z,19.87
2023-03-13T14:00:22.720Z,19.88
2023-03-13T14:04:22.769Z,19.87
2023-03-13T14:08:22.717Z,19.85
2023-03-13T14:12:22.708Z,19.85
2023-03-13T14:16:24.554Z,19.84
2023-03-13T14:20:22.886Z,19.85
2023-03-13T14:24:22.757Z,19.81
2023-03-13T14:28:22.794Z,19.83
2023-03-13T14:32:22.813Z,19.83
2023-03-13T14:36:22.836Z,19.83
2023-03-13T14:40:22.790Z,19.86
2023-03-13T14:44:22.772Z,19.84
2023-03-13T14:48:22.822Z,19.81
2023-03-13T14:52:22.826Z,19.84
2023-03-13T14:56:22.832Z,19.87
2023-03-13T15:00:22.824Z,19.90
2023-03-13T15:04:22.987Z,20.07
2023-03-13T15:08:23.447Z,21.41
2023-03-13T15:12:23.457Z,22.05
2023-03-13T15:16:23.188Z,21.28
2023-03-13T15:20:23.199Z,21.40
2023-03-13T15:24:23.293Z,22.00
2023-03-13T15:28:23.373Z,21.87
2023-03-13T15:32:25.775Z,21.37
2023-03-13T15:36:23.439Z,21.03
2023-03-13T15:40:23.533Z,20.77
2023-03-13T15:44:23.377Z,20.73
2023-03-13T15:48:23.356Z,20.45
2023-03-13T15:52:23.340Z,20.20
2023-03-13T15:56:23.368Z,20.03
2023-03-13T16:00:23.223Z,19.92
2023-03-13T16:04:23.275Z,19.84
2023-03-13T16:08:34.719Z,19.77
2023-03-13T16:12:24.159Z,19.73
2023-03-13T16:16:23.315Z,19.70
2023-03-13T16:20:23.088Z,19.67
2023-03-13T16:24:23.064Z,19.65
2023-03-13T16:28:23.028Z,19.64
2023-03-13T16:32:23.033Z,19.63
2023-03-13T16:36:23.093Z,19.61
2023-03-13T16:40:23.174Z,19.60
2023-03-13T16:44:23.250Z,19.59
2023-03-13T16:48:23.366Z,19.58
2023-03-13T16:52:23.469Z,19.56
2023-03-13T16:56:23.576Z,19.55
2023-03-13T17:00:23.700Z,19.55
2023-03-13T17:04:24.044Z,19.54
2023-03-13T17:08:23.932Z,19.53
2023-03-13T17:12:24.070Z,19.53
2023-03-13T17:16:24.266Z,19.52
2023-03-13T17:20:24.325Z,19.51
2023-03-13T17:24:24.470Z,19.50
2023-03-13T17:28:24.607Z,19.49
2023-03-13T17:32:24.844Z,19.49
2023-03-13T17:36:24.861Z,19.49
2023-03-13T17:40:25.113Z,19.47
2023-03-13T17:44:25.152Z,19.47
2023-03-13T17:48:25.292Z,19.46
2023-03-13T17:52:25.455Z,19.44
2023-03-13T17:56:25.627Z,19.44
2023-03-13T18:00:25.782Z,19.44
2023-03-13T18:04:25.915Z,19.43
2023-03-13T18:08:26.063Z,19.42
2023-03-13T18:12:26.242Z,19.43
2023-03-13T18:16:26.434Z,19.42
2023-03-13T18:20:26.570Z,19.41
2023-03-13T18:24:26.745Z,19.41
2023-03-13T18:28:26.939Z,19.41
2023-03-13T18:32:27.125Z,19.39
2023-03-13T18:36:27.298Z,19.38
2023-03-13T18:40:27.469Z,19.38
2023-03-13T18:44:27.611Z,19.39
2023-03-13T18:48:27.818Z,19.38
2023-03-13T18:52:27.996Z,19.38
2023-03-13T18:56:28.186Z,19.37
2023-03-13T19:00:28.422Z,19.37
2023-03-13T19:04:28.543Z,19.37
2023-03-13T19:08:28.753Z,19.36
2023-03-13T19:12:28.902Z,19.37
2023-03-13T19:16:29.136Z,19.37
2023-03-13T19:20:29.258Z,19.36
2023-03-13T19:24:29.458Z,19.35
2023-03-13T19:28:29.646Z,19.36
2023-03-13T19:32:29.896Z,19.35
2023-03-13T19:36:30.021Z,19.35
2023-03-13T19:40:30.254Z,19.34
2023-03-13T19:44:30.397Z,19.35
2023-03-13T19:48:30.540Z,19.34
2023-03-13T19:52:30.767Z,19.34
2023-03-13T19:56:30.959Z,19.35
2023-03-13T20:00:31.124Z,19.35
2023-03-13T20:04:31.335Z,19.35
2023-03-13T20:08:31.485Z,19.34
2023-03-13T20:12:31.712Z,19.33
2023-03-13T20:16:33.726Z,19.33
2023-03-13T20:20:31.854Z,19.34
2023-03-13T20:24:31.836Z,19.33
2023-03-13T20:28:31.816Z,19.33
2023-03-13T20:32:31.749Z,19.33
2023-03-13T20:36:31.700Z,19.32
2023-03-13T20:40:31.691Z,19.33
2023-03-13T20:44:31.712Z,19.32
2023-03-13T20:48:31.595Z,19.31
2023-03-13T20:52:31.572Z,19.32
2023-03-13T20:56:31.605Z,19.31
2023-03-13T21:00:31.604Z,19.31
2023-03-13T21:04:31.824Z,19.31
2023-03-13T21:08:32.013Z,19.31
2023-03-13T21:12:32.234Z,19.30
2023-03-13T21:16:32.613Z,19.30
2023-03-13T21:20:33.581Z,19.30
2023-03-13T21:24:32.837Z,19.29
2023-03-13T21:28:33.027Z,19.29
2023-03-13T21:32:33.227Z,19.29
2023-03-13T21:36:33.437Z,19.29
2023-03-13T21:40:33.673Z,19.29
2023-03-13T21:44:33.883Z,19.29
2023-03-13T21:48:34.109Z,19.29
2023-03-13T21:52:38.047Z,19.29
2023-03-13T21:56:35.296Z,19.28
2023-03-13T22:00:34.295Z,19.27
2023-03-13T22:04:34.227Z,19.28
2023-03-13T22:08:34.187Z,19.28
2023-03-13T22:12:34.142Z,19.28
2023-03-13T22:16:34.109Z,19.27
2023-03-13T22:20:34.179Z,19.27
2023-03-13T22:24:34.291Z,19.27
2023-03-13T22:28:34.477Z,19.26
2023-03-13T22:32:34.696Z,19.26
2023-03-13T22:36:34.859Z,19.27
2023-03-13T22:40:35.084Z,19.27
2023-03-13T22:44:35.325Z,19.26
2023-03-13T22:48:35.522Z,19.26
2023-03-13T22:52:35.846Z,19.25
2023-03-13T22:56:35.945Z,19.25
2023-03-13T23:00:36.143Z,19.24
2023-03-13T23:04:36.377Z,19.26
2023-03-13T23:08:36.644Z,19.26
2023-03-13T23:12:36.813Z,19.26
2023-03-13T23:16:36.782Z,19.24
2023-03-13T23:20:36.726Z,19.24
2023-03-13T23:24:36.700Z,19.23
2023-03-13T23:28:36.678Z,19.24
2023-03-13T23:32:36.757Z,19.24
2023-03-13T23:36:36.600Z,19.24
2023-03-13T23:40:36.599Z,19.24
2023-03-13T23:44:36.527Z,19.23
2023-03-13T23:48:36.520Z,19.24
2023-03-13T23:52:36.497Z,19.23
2023-03-13T23:56:36.623Z,19.23
